Richmond, VA (23293)

2:01 AM EST on November 24, 2014 (GMT -0500)
Varina - Strath Road | Change Station
CLOSE
Current Station
Personal Weather Station
Location: Henrico, VA
Elevation: 148 ft
Nearby Weather Stations

Elev 148 ft 37.46 °N, 77.35 °W | Updated 6 seconds ago

Overcast
Overcast
64.4 °F
Feels Like 64.4 °F
N
4.0
Wind Variable Wind from WSW
Gusts 10.0 mph

Today
High -- | Low -- °F
--% Chance of Precip.
Yesterday
High -- | Low -- °F
Precip. -- in
6:58 AM 4:53 PM
Waxing Crescent, 4% visible
Pressure 29.72 in
Visibility 10.0 miles
Clouds Overcast 1000 ft
Dew Point 61 °F
Humidity 89%
Rainfall 0.07 in
Snow Depth Not available.
UV 0 out of 12
Pollen .10 out of 12
Air Quality Not available.
Flu Activity Not available.
METAR KRIC 240654Z 16014G23KT 10SM OVC010 18/17 A2970 RMK AO2 PK WND 15028/0616 RAE41 CIG 008V013 SLP062 P0003 T01830167

More Conditions Fewer Conditions

Pressure 29.72 in
Visibility 10.0 miles
Clouds Overcast 1000 ft
Dew Point 61 °F
Humidity 89%
Rainfall 0.07 in
Snow Depth Not available.
UV 0 out of 12
Pollen .10 out of 12
Air Quality Not available.
Flu Activity Not available.
METAR KRIC 240654Z 16014G23KT 10SM OVC010 18/17 A2970 RMK AO2 PK WND 15028/0616 RAE41 CIG 008V013 SLP062 P0003 T01830167

More Conditions Fewer Conditions

10-Day Weather Forecast

Almanac

Astronomy

Nov. 24, 2014 Rise Set
Actual Time
Civil Twilight
Nautical Twilight
Astronomical Twilight
Moon
Length of Visible Light
Length of Day
Tomorrow will be .
, % of the Moon is Illuminated

Today's Extremes

State Highs State Lows

Community

WunderPhotos

Upload Photos

1,773,295 photos uploaded!

WunderBlogs® & News

Nearby

Air Quality

  Air Quality AQ Index Pollutant
Not available.

Snow Depth

Station Depth Elevation

Earthquake Activity

City Distance Mag. Time & Date
Minimum magnitude displayed is 2.5.

Coastal Water Temperatures

Place Temperature

Nearby Weather Stations